createdAt,value
2022-11-12T00:02:13.300Z,2.93
2022-11-12T00:05:00.846Z,2.89
2022-11-12T00:07:48.316Z,2.84
2022-11-12T00:10:36.021Z,2.81
2022-11-12T00:13:23.202Z,2.76
2022-11-12T00:16:10.853Z,2.73
2022-11-12T00:18:58.691Z,2.65
2022-11-12T00:21:46.261Z,2.69
2022-11-12T00:24:34.034Z,2.70
2022-11-12T00:27:21.681Z,2.66
2022-11-12T00:30:09.552Z,2.60
2022-11-12T00:32:56.974Z,2.52
2022-11-12T00:35:44.437Z,2.52
2022-11-12T00:38:32.568Z,2.46
2022-11-12T00:41:20.349Z,2.52
2022-11-12T00:44:08.047Z,2.42
2022-11-12T00:46:55.226Z,2.42
2022-11-12T00:49:43.153Z,2.44
2022-11-12T00:52:30.607Z,2.44
2022-11-12T00:55:17.876Z,2.48
2022-11-12T00:58:06.194Z,2.48
2022-11-12T01:00:53.831Z,2.42
2022-11-12T01:03:42.753Z,2.36
2022-11-12T01:06:30.210Z,2.53
2022-11-12T01:09:17.720Z,2.52
2022-11-12T01:12:06.801Z,2.42
2022-11-12T01:14:54.509Z,2.39
2022-11-12T01:17:42.588Z,2.56
2022-11-12T01:20:30.093Z,2.46
2022-11-12T01:23:17.711Z,2.44
2022-11-12T01:26:08.555Z,2.32
2022-11-12T01:28:56.790Z,2.17
2022-11-12T01:31:44.536Z,2.11
2022-11-12T01:34:32.160Z,2.05
2022-11-12T01:37:19.705Z,2.04
2022-11-12T01:40:07.954Z,2.01
2022-11-12T01:42:55.837Z,1.96
2022-11-12T01:45:46.393Z,1.97
2022-11-12T01:48:42.524Z,1.96
2022-11-12T01:51:33.291Z,1.93
2022-11-12T01:54:23.145Z,1.93
2022-11-12T01:57:13.517Z,2.00
2022-11-12T02:00:04.556Z,1.96
2022-11-12T02:02:55.445Z,1.89
2022-11-12T02:05:45.406Z,1.88
2022-11-12T02:08:34.113Z,2.06
2022-11-12T02:11:22.982Z,2.09
2022-11-12T02:14:10.666Z,2.09
2022-11-12T02:16:59.378Z,1.93
2022-11-12T02:19:48.252Z,2.04
2022-11-12T02:22:35.752Z,1.88
2022-11-12T02:25:25.600Z,1.78
2022-11-12T02:28:16.037Z,1.81
2022-11-12T02:31:03.536Z,1.78
2022-11-12T02:33:51.570Z,1.76
2022-11-12T02:36:39.299Z,1.87
2022-11-12T02:39:27.026Z,1.88
2022-11-12T02:42:14.608Z,1.77
2022-11-12T02:45:01.874Z,1.76
2022-11-12T02:47:49.507Z,1.69
2022-11-12T02:50:36.951Z,1.69
2022-11-12T02:53:24.477Z,1.59
2022-11-12T02:56:12.215Z,1.59
2022-11-12T02:58:59.846Z,1.65
2022-11-12T03:01:47.606Z,1.65
2022-11-12T03:04:35.205Z,1.63
2022-11-12T03:07:22.079Z,1.46
2022-11-12T03:10:09.842Z,1.42
2022-11-12T03:13:02.533Z,1.29
2022-11-12T03:15:50.011Z,1.29
2022-11-12T03:18:37.952Z,1.21
2022-11-12T03:21:25.618Z,1.20
2022-11-12T03:24:12.895Z,1.19
2022-11-12T03:27:00.406Z,1.14
2022-11-12T03:29:48.074Z,1.11
2022-11-12T03:32:35.492Z,1.12
2022-11-12T03:35:23.888Z,1.10
2022-11-12T03:38:11.609Z,1.05
2022-11-12T03:40:59.032Z,1.03
2022-11-12T03:43:46.452Z,1.13
2022-11-12T03:46:33.999Z,1.13
2022-11-12T03:49:21.558Z,1.10
2022-11-12T03:52:08.998Z,1.07
2022-11-12T03:54:56.663Z,1.04
2022-11-12T03:57:44.431Z,1.03
2022-11-12T04:00:32.699Z,1.06
2022-11-12T04:03:20.214Z,1.14
2022-11-12T04:06:25.502Z,1.00
2022-11-12T04:09:12.963Z,0.98
2022-11-12T04:12:02.227Z,0.95
2022-11-12T04:14:49.871Z,0.86
2022-11-12T04:17:55.186Z,0.85
2022-11-12T04:21:00.619Z,0.92
2022-11-12T04:23:48.294Z,0.83
2022-11-12T04:26:36.138Z,0.82
2022-11-12T04:29:41.399Z,0.82
2022-11-12T04:32:30.078Z,0.81
2022-11-12T04:35:18.913Z,1.10
2022-11-12T04:38:06.979Z,1.02
2022-11-12T04:41:12.093Z,0.97
2022-11-12T04:44:17.433Z,1.22
2022-11-12T04:47:05.232Z,1.00
2022-11-12T04:49:52.882Z,1.24
2022-11-12T04:52:40.480Z,0.95
2022-11-12T04:55:27.864Z,0.83
2022-11-12T04:58:15.089Z,0.81
2022-11-12T05:01:03.767Z,0.79
2022-11-12T05:03:51.572Z,0.76
2022-11-12T05:06:53.949Z,0.78
2022-11-12T05:09:42.413Z,0.80
2022-11-12T05:12:30.157Z,0.73
2022-11-12T05:15:17.799Z,0.72
2022-11-12T05:18:06.105Z,0.67
2022-11-12T05:20:54.751Z,0.64
2022-11-12T05:23:41.964Z,0.64
2022-11-12T05:26:30.355Z,0.63
2022-11-12T05:29:18.673Z,0.73
2022-11-12T05:32:08.292Z,0.59
2022-11-12T05:34:56.012Z,0.59
2022-11-12T05:37:44.566Z,0.65
2022-11-12T05:40:32.043Z,0.68
2022-11-12T05:43:19.667Z,0.81
2022-11-12T05:46:07.328Z,0.74
2022-11-12T05:48:54.796Z,0.69
2022-11-12T05:51:42.589Z,0.70
2022-11-12T05:54:30.028Z,0.66
2022-11-12T05:57:17.536Z,0.64
2022-11-12T06:00:06.662Z,0.66
2022-11-12T06:02:57.238Z,0.64
2022-11-12T06:05:44.692Z,0.98
2022-11-12T06:08:32.350Z,1.06
2022-11-12T06:11:20.088Z,0.94
2022-11-12T06:14:08.306Z,0.88
2022-11-12T06:16:56.070Z,0.95
2022-11-12T06:19:43.520Z,1.03
2022-11-12T06:22:31.383Z,0.99
2022-11-12T06:25:19.019Z,0.83
2022-11-12T06:28:07.020Z,0.69
2022-11-12T06:30:54.473Z,0.66
2022-11-12T06:33:42.437Z,0.66
2022-11-12T06:36:29.986Z,0.58
2022-11-12T06:39:17.187Z,0.58
2022-11-12T06:42:05.056Z,0.52
2022-11-12T06:44:52.718Z,0.59
2022-11-12T06:47:40.174Z,0.59
2022-11-12T06:50:27.866Z,0.62
2022-11-12T06:53:15.102Z,0.61
2022-11-12T06:56:04.495Z,0.64
2022-11-12T06:58:52.219Z,0.58
2022-11-12T07:01:39.964Z,0.70
2022-11-12T07:04:27.643Z,0.78
2022-11-12T07:07:15.256Z,0.83
2022-11-12T07:10:02.715Z,0.90
2022-11-12T07:12:53.343Z,0.99
2022-11-12T07:15:39.698Z,1.05
2022-11-12T07:18:28.758Z,1.20
2022-11-12T07:21:19.289Z,1.58
2022-11-12T07:24:07.422Z,1.57
2022-11-12T07:26:55.088Z,1.52
2022-11-12T07:29:48.101Z,1.62
2022-11-12T07:32:32.252Z,1.64
2022-11-12T07:35:19.630Z,1.75
2022-11-12T07:38:06.821Z,1.82
2022-11-12T07:40:56.246Z,1.91
2022-11-12T07:43:45.415Z,2.01
2022-11-12T07:46:32.892Z,2.21
2022-11-12T07:49:20.380Z,2.41
2022-11-12T07:52:08.152Z,2.40
2022-11-12T07:54:56.000Z,2.65
2022-11-12T07:57:43.621Z,2.69
2022-11-12T08:00:31.370Z,2.85
2022-11-12T08:03:19.090Z,3.24
2022-11-12T08:06:07.061Z,3.23
2022-11-12T08:08:55.492Z,3.38
2022-11-12T08:11:43.360Z,3.60
2022-11-12T08:14:31.048Z,4.12
2022-11-12T08:17:18.669Z,4.60
2022-11-12T08:20:07.579Z,5.54
2022-11-12T08:22:55.277Z,5.54
2022-11-12T08:25:43.007Z,6.06
2022-11-12T08:28:32.965Z,6.48
2022-11-12T08:31:22.821Z,6.84
2022-11-12T08:34:15.159Z,7.20
2022-11-12T08:37:02.236Z,7.65
2022-11-12T08:39:49.976Z,8.14
2022-11-12T08:42:38.004Z,8.52
2022-11-12T08:45:26.249Z,9.25
2022-11-12T08:48:15.319Z,9.25
2022-11-12T08:51:06.804Z,9.38
2022-11-12T08:53:53.991Z,9.55
2022-11-12T08:56:41.899Z,9.82
2022-11-12T08:59:29.734Z,10.13
2022-11-12T09:02:16.950Z,10.40
2022-11-12T09:05:04.720Z,10.60
2022-11-12T09:08:00.462Z,10.93
2022-11-12T09:10:48.542Z,11.34
2022-11-12T09:13:36.461Z,11.34
2022-11-12T09:16:24.275Z,11.30
2022-11-12T09:19:11.801Z,11.38
2022-11-12T09:21:59.290Z,11.75
2022-11-12T09:24:46.835Z,12.04
2022-11-12T09:27:34.530Z,12.04
2022-11-12T09:30:22.618Z,12.20
2022-11-12T09:33:09.824Z,12.53
2022-11-12T09:35:59.294Z,12.73
2022-11-12T09:38:46.746Z,12.80
2022-11-12T09:41:37.783Z,12.80
2022-11-12T09:44:25.283Z,13.01
2022-11-12T09:47:18.756Z,13.23
2022-11-12T09:50:24.671Z,13.43
2022-11-12T09:53:32.693Z,13.71
2022-11-12T09:56:22.423Z,13.46
2022-11-12T09:59:16.219Z,13.40
2022-11-12T10:02:07.215Z,13.45
2022-11-12T10:05:00.443Z,13.32
2022-11-12T10:08:17.298Z,13.31
2022-11-12T10:11:38.636Z,13.18
2022-11-12T10:14:49.985Z,13.28
2022-11-12T10:17:40.280Z,13.55
2022-11-12T10:20:33.561Z,13.52
2022-11-12T10:23:25.163Z,14.01
2022-11-12T10:26:18.539Z,13.64
2022-11-12T10:29:15.903Z,13.93
2022-11-12T10:32:04.213Z,13.97
2022-11-12T10:34:51.929Z,13.66
2022-11-12T10:37:58.788Z,13.44
2022-11-12T10:40:46.539Z,13.63
2022-11-12T10:43:34.053Z,13.74
2022-11-12T10:46:33.284Z,13.60
2022-11-12T10:49:23.735Z,13.98
2022-11-12T10:52:25.316Z,13.88
2022-11-12T10:55:24.821Z,13.97
2022-11-12T10:58:17.161Z,13.85
2022-11-12T11:01:08.686Z,13.91
2022-11-12T11:03:58.795Z,13.79
2022-11-12T11:06:46.088Z,13.76
2022-11-12T11:09:35.326Z,13.72
2022-11-12T11:12:31.852Z,13.82
2022-11-12T11:15:24.980Z,13.71
2022-11-12T11:18:13.712Z,13.73
2022-11-12T11:21:25.433Z,13.86
2022-11-12T11:24:18.977Z,13.81
2022-11-12T11:27:29.783Z,14.15
2022-11-12T11:30:23.719Z,14.20
2022-11-12T11:33:26.126Z,14.20
2022-11-12T11:36:28.053Z,14.20
2022-11-12T11:39:20.898Z,14.19
2022-11-12T11:42:35.516Z,14.21
2022-11-12T11:45:34.555Z,14.20
2022-11-12T11:48:39.432Z,14.09
2022-11-12T11:51:46.485Z,13.87
2022-11-12T11:54:58.081Z,13.76
2022-11-12T11:58:22.045Z,13.79
2022-11-12T12:01:33.274Z,13.75
2022-11-12T12:04:43.016Z,13.68
2022-11-12T12:07:39.840Z,13.55
2022-11-12T12:11:01.271Z,13.54
2022-11-12T12:13:37.114Z,13.39
2022-11-12T12:16:30.235Z,13.46
2022-11-12T12:19:28.234Z,13.55
2022-11-12T12:22:18.439Z,13.60
2022-11-12T12:25:12.602Z,13.56
2022-11-12T12:28:15.649Z,13.56
2022-11-12T12:31:09.219Z,13.66
2022-11-12T12:34:14.465Z,13.65
2022-11-12T12:37:13.207Z,13.67
2022-11-12T12:40:19.787Z,13.64
2022-11-12T12:43:13.707Z,13.64
2022-11-12T12:46:01.411Z,13.58
2022-11-12T12:48:51.637Z,13.57
2022-11-12T12:51:39.283Z,13.48
2022-11-12T12:54:41.917Z,13.35
2022-11-12T12:57:35.956Z,13.22
2022-11-12T13:00:31.353Z,13.28
2022-11-12T13:03:47.050Z,13.28
2022-11-12T13:06:37.853Z,13.17
2022-11-12T13:09:28.540Z,12.96
2022-11-12T13:12:20.050Z,12.99
2022-11-12T13:15:19.360Z,12.96
2022-11-12T13:18:15.902Z,12.91
2022-11-12T13:21:16.270Z,12.94
2022-11-12T13:24:07.490Z,12.58
2022-11-12T13:26:58.118Z,12.58
2022-11-12T13:29:47.180Z,12.59
2022-11-12T13:32:40.463Z,12.51
2022-11-12T13:35:34.724Z,12.24
2022-11-12T13:38:22.967Z,12.43
2022-11-12T13:41:24.313Z,12.09
2022-11-12T13:44:14.988Z,12.03
2022-11-12T13:47:02.738Z,11.96
2022-11-12T13:49:51.258Z,11.89
2022-11-12T13:52:40.138Z,11.96
2022-11-12T13:55:27.669Z,11.68
2022-11-12T13:58:32.289Z,11.69
2022-11-12T14:01:22.637Z,11.46
2022-11-12T14:04:12.762Z,11.59
2022-11-12T14:07:03.935Z,11.53
2022-11-12T14:10:06.275Z,11.48
2022-11-12T14:13:18.229Z,11.19
2022-11-12T14:16:25.019Z,11.02
2022-11-12T14:19:30.794Z,10.85
2022-11-12T14:22:20.671Z,10.71
2022-11-12T14:25:17.189Z,10.52
2022-11-12T14:28:05.232Z,10.50
2022-11-12T14:30:52.954Z,10.33
2022-11-12T14:33:40.493Z,10.10
2022-11-12T14:36:28.056Z,10.10
2022-11-12T14:39:15.751Z,9.94
2022-11-12T14:42:03.416Z,9.94
2022-11-12T14:44:50.971Z,9.92
2022-11-12T14:47:38.632Z,9.66
2022-11-12T14:50:37.452Z,9.60
2022-11-12T14:53:25.391Z,9.64
2022-11-12T14:56:15.971Z,9.42
2022-11-12T14:59:04.779Z,9.23
2022-11-12T15:02:46.109Z,9.23
2022-11-12T15:05:18.267Z,9.09
2022-11-12T15:08:09.176Z,9.04
2022-11-12T15:10:57.294Z,8.72
2022-11-12T15:13:46.465Z,8.72
2022-11-12T15:16:35.874Z,8.56
2022-11-12T15:19:26.357Z,8.48
2022-11-12T15:22:24.027Z,8.31
2022-11-12T15:25:20.985Z,8.20
2022-11-12T15:28:16.944Z,8.09
2022-11-12T15:31:19.274Z,7.98
2022-11-12T15:34:30.659Z,7.89
2022-11-12T15:37:23.736Z,7.69
2022-11-12T15:40:15.852Z,7.41
2022-11-12T15:43:04.347Z,7.31
2022-11-12T15:45:53.540Z,7.16
2022-11-12T15:48:42.489Z,6.95
2022-11-12T15:51:30.034Z,6.95
2022-11-12T15:54:17.822Z,6.63
2022-11-12T15:57:06.134Z,6.57
2022-11-12T16:00:07.909Z,6.46
2022-11-12T16:03:00.300Z,6.39
2022-11-12T16:05:50.008Z,6.23
2022-11-12T16:08:37.752Z,6.11
2022-11-12T16:11:37.594Z,6.00
2022-11-12T16:14:25.346Z,5.89
2022-11-12T16:17:19.857Z,5.84
2022-11-12T16:20:22.382Z,5.70
2022-11-12T16:23:10.190Z,5.60
2022-11-12T16:25:58.009Z,5.47
2022-11-12T16:28:45.463Z,5.45
2022-11-12T16:31:33.017Z,5.43
2022-11-12T16:34:20.498Z,5.36
2022-11-12T16:37:09.182Z,5.30
2022-11-12T16:39:57.171Z,5.32
2022-11-12T16:42:47.481Z,5.47
2022-11-12T16:45:40.572Z,5.30
2022-11-12T16:48:28.066Z,5.29
2022-11-12T16:51:18.394Z,5.18
2022-11-12T16:54:06.428Z,5.13
2022-11-12T16:56:54.256Z,5.11
2022-11-12T16:59:41.812Z,5.06
2022-11-12T17:02:29.205Z,4.97
2022-11-12T17:05:20.345Z,4.95
2022-11-12T17:08:08.066Z,4.96
2022-11-12T17:10:55.243Z,4.90
2022-11-12T17:13:43.629Z,4.85
2022-11-12T17:16:31.392Z,4.83
2022-11-12T17:19:18.900Z,4.81
2022-11-12T17:22:06.959Z,4.77
2022-11-12T17:24:54.351Z,4.70
2022-11-12T17:27:42.253Z,4.67
2022-11-12T17:30:30.001Z,4.64
2022-11-12T17:33:17.272Z,4.59
2022-11-12T17:36:07.716Z,4.58
2022-11-12T17:38:59.287Z,4.56
2022-11-12T17:41:46.685Z,4.45
2022-11-12T17:44:34.389Z,4.41
2022-11-12T17:47:21.877Z,4.40
2022-11-12T17:50:09.811Z,4.34
2022-11-12T17:52:57.465Z,4.46
2022-11-12T17:55:44.948Z,4.38
2022-11-12T17:58:33.166Z,4.38
2022-11-12T18:01:26.185Z,4.35
2022-11-12T18:04:13.606Z,4.64
2022-11-12T18:07:01.100Z,4.39
2022-11-12T18:09:48.839Z,4.25
2022-11-12T18:12:36.633Z,4.29
2022-11-12T18:15:24.083Z,4.35
2022-11-12T18:18:11.752Z,4.16
2022-11-12T18:20:59.477Z,4.16
2022-11-12T18:23:47.460Z,4.20
2022-11-12T18:26:34.977Z,4.22
2022-11-12T18:29:22.359Z,4.83
2022-11-12T18:32:10.230Z,4.53
2022-11-12T18:34:58.042Z,4.53
2022-11-12T18:37:45.863Z,4.87
2022-11-12T18:40:33.290Z,4.87
2022-11-12T18:43:20.873Z,4.95
2022-11-12T18:46:10.652Z,4.81
2022-11-12T18:48:58.840Z,4.97
2022-11-12T18:51:46.322Z,5.05
2022-11-12T18:54:33.807Z,5.27
2022-11-12T18:57:21.079Z,5.07
2022-11-12T19:00:08.859Z,5.37
2022-11-12T19:02:56.292Z,5.43
2022-11-12T19:05:44.411Z,5.65
2022-11-12T19:08:32.019Z,5.53
2022-11-12T19:11:21.817Z,5.42
2022-11-12T19:14:09.608Z,5.46
2022-11-12T19:16:57.714Z,5.47
2022-11-12T19:19:45.515Z,5.65
2022-11-12T19:22:33.013Z,5.79
2022-11-12T19:25:21.871Z,6.10
2022-11-12T19:28:08.835Z,5.82
2022-11-12T19:30:56.954Z,5.79
2022-11-12T19:33:44.937Z,5.87
2022-11-12T19:36:32.168Z,6.06
2022-11-12T19:39:19.983Z,6.09
2022-11-12T19:42:08.960Z,6.02
2022-11-12T19:44:56.472Z,5.98
2022-11-12T19:47:43.938Z,5.96
2022-11-12T19:50:33.217Z,6.13
2022-11-12T19:53:20.817Z,6.22
2022-11-12T19:56:08.967Z,6.14
2022-11-12T19:58:56.571Z,6.14
2022-11-12T20:01:44.362Z,6.32
2022-11-12T20:04:31.857Z,6.32
2022-11-12T20:07:19.283Z,6.15
2022-11-12T20:10:07.287Z,6.16
2022-11-12T20:12:56.001Z,6.26
2022-11-12T20:15:43.963Z,6.38
2022-11-12T20:18:31.403Z,6.32
2022-11-12T20:21:18.914Z,6.31
2022-11-12T20:24:08.396Z,6.28
2022-11-12T20:26:56.085Z,6.29
2022-11-12T20:29:44.494Z,6.30
2022-11-12T20:32:31.965Z,6.33
2022-11-12T20:35:22.128Z,6.40
2022-11-12T20:38:08.841Z,6.41
2022-11-12T20:41:02.671Z,6.36
2022-11-12T20:43:54.963Z,6.56
2022-11-12T20:46:42.431Z,6.61
2022-11-12T20:49:30.122Z,6.51
2022-11-12T20:52:18.518Z,6.53
2022-11-12T20:55:06.986Z,6.76
2022-11-12T20:57:54.225Z,6.60
2022-11-12T21:00:41.945Z,6.57
2022-11-12T21:03:29.869Z,6.69
2022-11-12T21:06:29.447Z,6.63
2022-11-12T21:09:17.885Z,6.62
2022-11-12T21:12:07.312Z,6.63
2022-11-12T21:14:55.368Z,6.68
2022-11-12T21:17:42.864Z,6.75
2022-11-12T21:20:30.515Z,6.67
2022-11-12T21:23:18.255Z,6.67
2022-11-12T21:26:13.570Z,6.68
2022-11-12T21:29:00.650Z,6.78
2022-11-12T21:31:48.233Z,6.93
2022-11-12T21:34:35.766Z,6.81
2022-11-12T21:37:23.573Z,6.79
2022-11-12T21:40:11.281Z,6.73
2022-11-12T21:43:01.163Z,6.67
2022-11-12T21:45:48.864Z,6.59
2022-11-12T21:48:37.120Z,6.69
2022-11-12T21:51:30.549Z,6.69
2022-11-12T21:54:18.344Z,6.58
2022-11-12T21:57:07.061Z,6.91
2022-11-12T22:00:00.276Z,6.73
2022-11-12T22:02:44.217Z,6.71
2022-11-12T22:05:31.435Z,6.74
2022-11-12T22:08:19.007Z,6.73
2022-11-12T22:11:09.699Z,6.68
2022-11-12T22:13:57.589Z,6.70
2022-11-12T22:16:45.467Z,6.74
2022-11-12T22:19:34.389Z,6.77
2022-11-12T22:22:21.634Z,6.80
2022-11-12T22:25:09.287Z,6.98
2022-11-12T22:27:56.692Z,6.81
2022-11-12T22:30:44.330Z,6.98
2022-11-12T22:33:32.111Z,7.00
2022-11-12T22:36:21.853Z,6.90
2022-11-12T22:39:09.608Z,6.83
2022-11-12T22:41:57.297Z,6.83
2022-11-12T22:44:44.492Z,6.84
2022-11-12T22:47:33.687Z,6.86
2022-11-12T22:50:21.224Z,6.89
2022-11-12T22:53:08.641Z,6.75
2022-11-12T22:55:58.482Z,6.94
2022-11-12T22:58:47.727Z,6.94
2022-11-12T23:01:36.989Z,6.93
2022-11-12T23:04:24.537Z,6.81
2022-11-12T23:07:11.870Z,6.79
2022-11-12T23:10:00.000Z,7.14
2022-11-12T23:12:47.406Z,6.93
2022-11-12T23:15:35.148Z,6.88
2022-11-12T23:18:22.876Z,6.86
2022-11-12T23:21:16.170Z,6.91
2022-11-12T23:24:03.449Z,6.86
2022-11-12T23:26:50.894Z,6.90
2022-11-12T23:29:38.324Z,6.91
2022-11-12T23:32:25.942Z,7.00
2022-11-12T23:35:13.483Z,6.87
2022-11-12T23:38:00.936Z,6.96
2022-11-12T23:40:56.745Z,6.90
2022-11-12T23:43:44.599Z,6.91
2022-11-12T23:46:32.283Z,7.00
2022-11-12T23:49:20.147Z,7.00
2022-11-12T23:52:07.951Z,7.03
2022-11-12T23:54:55.917Z,7.01
2022-11-12T23:57:43.074Z,7.06
